createdAt,value
2019-05-07T00:00:23.455Z,54.06
2019-05-07T00:01:23.502Z,54.37
2019-05-07T00:02:23.433Z,54.47
2019-05-07T00:03:23.430Z,54.67
2019-05-07T00:04:23.411Z,53.87
2019-05-07T00:05:23.401Z,54.99
2019-05-07T00:06:23.392Z,55.29
2019-05-07T00:07:23.388Z,55.27
2019-05-07T00:08:23.374Z,55.17
2019-05-07T00:09:23.576Z,54.99
2019-05-07T00:10:24.979Z,56.07
2019-05-07T00:11:23.357Z,55.47
2019-05-07T00:12:23.326Z,55.59
2019-05-07T00:13:23.326Z,55.89
2019-05-07T00:14:23.311Z,56.16
2019-05-07T00:15:23.304Z,55.97
2019-05-07T00:16:23.280Z,55.36
2019-05-07T00:17:23.271Z,56.16
2019-05-07T00:18:23.269Z,55.36
2019-05-07T00:19:23.307Z,55.59
2019-05-07T00:20:23.246Z,56.09
2019-05-07T00:21:23.529Z,55.89
2019-05-07T00:22:23.217Z,56.39
2019-05-07T00:23:23.369Z,56.16
2019-05-07T00:24:23.203Z,56.49
2019-05-07T00:25:23.189Z,56.37
2019-05-07T00:26:23.186Z,56.07
2019-05-07T00:27:23.166Z,55.97
2019-05-07T00:28:23.259Z,55.89
2019-05-07T00:29:23.144Z,56.16
2019-05-07T00:30:23.144Z,55.89
2019-05-07T00:31:23.438Z,56.49
2019-05-07T00:32:23.699Z,56.09
2019-05-07T00:33:23.103Z,55.87
2019-05-07T00:34:23.097Z,56.59
2019-05-07T00:35:23.081Z,56.27
2019-05-07T00:36:23.175Z,56.59
2019-05-07T00:37:23.084Z,56.29
2019-05-07T00:38:23.067Z,56.37
2019-05-07T00:39:23.043Z,56.37
2019-05-07T00:40:23.028Z,56.46
2019-05-07T00:41:23.030Z,56.70
2019-05-07T00:42:23.011Z,56.67
2019-05-07T00:43:22.998Z,56.96
2019-05-07T00:44:22.985Z,56.77
2019-05-07T00:45:23.819Z,56.89
2019-05-07T00:46:22.964Z,56.89
2019-05-07T00:47:22.965Z,57.09
2019-05-07T00:48:23.543Z,56.77
2019-05-07T00:49:22.935Z,56.96
2019-05-07T00:50:22.923Z,57.09
2019-05-07T00:51:22.912Z,56.79
2019-05-07T00:52:22.902Z,57.29
2019-05-07T00:53:23.683Z,56.89
2019-05-07T00:54:23.147Z,57.26
2019-05-07T00:55:22.889Z,56.96
2019-05-07T00:56:22.860Z,58.80
2019-05-07T00:57:23.015Z,58.80
2019-05-07T00:58:26.497Z,58.39
2019-05-07T00:59:22.826Z,58.29
2019-05-07T01:00:22.828Z,56.77
2019-05-07T01:01:22.944Z,58.49
2019-05-07T01:02:22.810Z,58.29
2019-05-07T01:03:22.787Z,58.47
2019-05-07T01:04:23.089Z,58.37
2019-05-07T01:05:23.205Z,58.69
2019-05-07T01:06:24.566Z,58.80
2019-05-07T01:07:23.108Z,59.09
2019-05-07T01:08:22.805Z,58.99
2019-05-07T01:09:23.019Z,58.47
2019-05-07T01:10:22.715Z,58.99
2019-05-07T01:11:22.818Z,58.49
2019-05-07T01:12:22.707Z,58.47
2019-05-07T01:13:23.418Z,58.99
2019-05-07T01:14:22.977Z,58.09
2019-05-07T01:15:31.216Z,57.76
2019-05-07T01:16:23.647Z,56.89
2019-05-07T01:17:22.917Z,59.56
2019-05-07T01:18:23.485Z,60.57
2019-05-07T01:19:22.630Z,59.30
2019-05-07T01:20:22.610Z,60.46
2019-05-07T01:21:22.808Z,61.19
2019-05-07T01:22:22.584Z,60.99
2019-05-07T01:23:22.978Z,60.89
2019-05-07T01:24:23.360Z,61.16
2019-05-07T01:25:22.557Z,61.19
2019-05-07T01:26:22.541Z,60.69
2019-05-07T01:27:22.824Z,61.79
2019-05-07T01:28:22.615Z,61.09
2019-05-07T01:29:22.738Z,61.69
2019-05-07T01:30:23.112Z,61.40
2019-05-07T01:31:22.488Z,61.09
2019-05-07T01:32:22.477Z,61.49
2019-05-07T01:33:22.788Z,61.79
2019-05-07T01:34:23.085Z,60.99
2019-05-07T01:35:22.514Z,61.87
2019-05-07T01:36:22.722Z,62.66
2019-05-07T01:37:23.145Z,62.76
2019-05-07T01:38:22.950Z,62.96
2019-05-07T01:39:23.151Z,62.16
2019-05-07T01:40:22.851Z,60.66
2019-05-07T01:41:23.096Z,61.49
2019-05-07T01:42:22.379Z,61.49
2019-05-07T01:43:22.845Z,60.77
2019-05-07T01:44:22.361Z,61.87
2019-05-07T01:45:25.025Z,61.96
2019-05-07T01:46:24.497Z,61.57
2019-05-07T01:47:23.775Z,61.46
2019-05-07T01:48:22.999Z,61.59
2019-05-07T01:49:24.059Z,60.69
2019-05-07T01:50:22.829Z,61.09
2019-05-07T01:51:22.352Z,60.96
2019-05-07T01:52:22.707Z,61.09
2019-05-07T01:53:22.847Z,60.89
2019-05-07T01:54:23.874Z,60.86
2019-05-07T01:55:22.692Z,62.09
2019-05-07T01:56:22.966Z,61.40
2019-05-07T01:57:23.122Z,61.26
2019-05-07T01:58:22.270Z,60.66
2019-05-07T01:59:22.611Z,61.09
2019-05-07T02:00:22.518Z,60.77
2019-05-07T02:01:22.274Z,61.36
2019-05-07T02:02:22.882Z,61.49
2019-05-07T02:03:23.102Z,61.16
2019-05-07T02:04:22.430Z,61.40
2019-05-07T02:05:22.914Z,61.19
2019-05-07T02:06:22.161Z,59.99
2019-05-07T02:07:22.685Z,61.26
2019-05-07T02:08:22.270Z,60.29
2019-05-07T02:09:22.521Z,61.76
2019-05-07T02:10:22.717Z,61.19
2019-05-07T02:11:22.070Z,60.57
2019-05-07T02:12:22.259Z,61.29
2019-05-07T02:13:22.420Z,61.40
2019-05-07T02:14:22.033Z,63.09
2019-05-07T02:15:22.615Z,62.49
2019-05-07T02:16:22.015Z,62.39
2019-05-07T02:17:22.784Z,62.66
2019-05-07T02:18:21.988Z,62.76
2019-05-07T02:19:22.069Z,62.70
2019-05-07T02:20:22.570Z,62.79
2019-05-07T02:21:22.172Z,62.86
2019-05-07T02:22:22.727Z,62.70
2019-05-07T02:23:22.230Z,62.49
2019-05-07T02:24:22.024Z,62.09
2019-05-07T02:25:22.209Z,61.40
2019-05-07T02:26:22.617Z,62.26
2019-05-07T02:27:22.202Z,62.76
2019-05-07T02:28:22.336Z,62.49
2019-05-07T02:29:22.793Z,62.39
2019-05-07T02:30:23.655Z,62.79
2019-05-07T02:31:23.213Z,62.66
2019-05-07T02:32:23.980Z,62.76
2019-05-07T02:33:22.981Z,62.39
2019-05-07T02:34:23.399Z,62.86
2019-05-07T02:35:23.582Z,62.59
2019-05-07T02:36:23.647Z,62.79
2019-05-07T02:37:23.241Z,62.09
2019-05-07T02:38:23.057Z,62.19
2019-05-07T02:39:24.117Z,62.39
2019-05-07T02:40:22.887Z,62.19
2019-05-07T02:41:23.412Z,61.79
2019-05-07T02:42:23.898Z,62.09
2019-05-07T02:43:22.788Z,61.49
2019-05-07T02:44:23.216Z,62.26
2019-05-07T02:45:24.018Z,62.19
2019-05-07T02:46:29.986Z,62.19
2019-05-07T02:47:23.681Z,62.59
2019-05-07T02:48:23.672Z,62.39
2019-05-07T02:49:23.549Z,62.79
2019-05-07T02:50:22.773Z,62.29
2019-05-07T02:51:23.990Z,62.49
2019-05-07T02:52:22.985Z,62.29
2019-05-07T02:53:22.811Z,62.39
2019-05-07T02:54:24.142Z,62.79
2019-05-07T02:55:23.280Z,62.59
2019-05-07T02:56:23.598Z,62.49
2019-05-07T02:57:24.051Z,62.59
2019-05-07T02:58:23.984Z,62.39
2019-05-07T02:59:23.357Z,62.29
2019-05-07T03:00:24.238Z,62.89
2019-05-07T03:01:22.631Z,62.89
2019-05-07T03:02:24.074Z,62.70
2019-05-07T03:03:24.482Z,62.89
2019-05-07T03:04:24.594Z,62.70
2019-05-07T03:05:23.077Z,62.70
2019-05-07T03:06:23.289Z,63.09
2019-05-07T03:07:24.226Z,62.89
2019-05-07T03:08:27.004Z,62.89
2019-05-07T03:09:22.838Z,62.59
2019-05-07T03:10:23.729Z,62.99
2019-05-07T03:11:22.899Z,62.99
2019-05-07T03:12:23.794Z,62.89
2019-05-07T03:13:23.539Z,62.99
2019-05-07T03:14:23.354Z,62.59
2019-05-07T03:15:24.228Z,62.99
2019-05-07T03:16:38.827Z,62.70
2019-05-07T03:17:24.522Z,62.89
2019-05-07T03:18:23.301Z,63.39
2019-05-07T03:19:24.249Z,62.09
2019-05-07T03:20:22.966Z,63.39
2019-05-07T03:21:23.549Z,62.79
2019-05-07T03:22:23.119Z,63.19
2019-05-07T03:23:22.778Z,63.09
2019-05-07T03:24:23.126Z,63.29
2019-05-07T03:25:23.096Z,63.39
2019-05-07T03:26:23.111Z,63.39
2019-05-07T03:27:23.477Z,63.09
2019-05-07T03:28:23.112Z,63.19
2019-05-07T03:29:24.034Z,63.79
2019-05-07T03:30:26.118Z,63.19
2019-05-07T03:31:26.016Z,63.29
2019-05-07T03:32:26.658Z,63.19
2019-05-07T03:33:26.163Z,63.39
2019-05-07T03:34:25.560Z,63.69
2019-05-07T03:35:26.662Z,63.79
2019-05-07T03:36:26.098Z,63.49
2019-05-07T03:37:23.389Z,63.69
2019-05-07T03:38:22.906Z,63.59
2019-05-07T03:39:23.806Z,63.69
2019-05-07T03:40:23.100Z,64.00
2019-05-07T03:41:22.725Z,64.09
2019-05-07T03:42:23.542Z,64.19
2019-05-07T03:43:22.903Z,64.19
2019-05-07T03:44:23.902Z,64.09
2019-05-07T03:45:23.046Z,64.09
2019-05-07T03:46:23.422Z,64.29
2019-05-07T03:47:23.712Z,64.49
2019-05-07T03:48:23.748Z,64.09
2019-05-07T03:49:22.513Z,64.19
2019-05-07T03:50:23.351Z,64.00
2019-05-07T03:51:23.670Z,64.59
2019-05-07T03:52:24.152Z,64.69
2019-05-07T03:53:23.057Z,64.49
2019-05-07T03:54:23.803Z,64.49
2019-05-07T03:55:23.395Z,64.49
2019-05-07T03:56:23.415Z,64.59
2019-05-07T03:57:23.792Z,64.79
2019-05-07T03:58:23.600Z,64.69
2019-05-07T03:59:23.163Z,65.29
2019-05-07T04:00:23.635Z,65.39
2019-05-07T04:01:23.735Z,64.79
2019-05-07T04:02:23.778Z,65.49
2019-05-07T04:03:24.377Z,65.09
2019-05-07T04:04:23.058Z,65.59
2019-05-07T04:05:23.147Z,65.69
2019-05-07T04:06:23.193Z,65.89
2019-05-07T04:07:23.317Z,65.39
2019-05-07T04:08:23.730Z,65.29
2019-05-07T04:09:23.877Z,65.59
2019-05-07T04:10:23.230Z,65.29
2019-05-07T04:11:23.034Z,66.09
2019-05-07T04:12:23.476Z,65.49
2019-05-07T04:13:23.717Z,65.49
2019-05-07T04:14:23.165Z,65.19
2019-05-07T04:15:23.351Z,65.29
2019-05-07T04:16:23.662Z,65.19
2019-05-07T04:17:23.188Z,65.19
2019-05-07T04:18:23.708Z,65.19
2019-05-07T04:19:23.370Z,65.09
2019-05-07T04:20:23.694Z,65.09
2019-05-07T04:21:23.255Z,65.09
2019-05-07T04:22:24.167Z,65.49
2019-05-07T04:23:23.228Z,65.49
2019-05-07T04:24:23.329Z,65.69
2019-05-07T04:25:23.722Z,65.29
2019-05-07T04:26:23.193Z,65.49
2019-05-07T04:27:23.665Z,65.69
2019-05-07T04:28:23.345Z,65.49
2019-05-07T04:29:23.083Z,65.09
2019-05-07T04:30:23.299Z,65.89
2019-05-07T04:31:22.940Z,65.89
2019-05-07T04:32:23.039Z,65.59
2019-05-07T04:33:23.454Z,65.59
2019-05-07T04:34:23.474Z,65.59
2019-05-07T04:35:20.530Z,65.69
2019-05-07T04:36:23.096Z,65.59
2019-05-07T04:37:23.765Z,65.59
2019-05-07T04:38:23.575Z,65.59
2019-05-07T04:39:23.148Z,65.99
2019-05-07T04:40:23.684Z,65.69
2019-05-07T04:41:23.218Z,65.79
2019-05-07T04:42:24.045Z,65.69
2019-05-07T04:43:23.273Z,65.19
2019-05-07T04:44:23.265Z,65.89
2019-05-07T04:45:23.120Z,65.59
2019-05-07T04:46:23.315Z,65.69
2019-05-07T04:47:36.932Z,65.49
2019-05-07T04:48:23.362Z,65.89
2019-05-07T04:49:23.574Z,65.69
2019-05-07T04:50:37.929Z,65.49
2019-05-07T04:51:23.259Z,65.49
2019-05-07T04:52:23.663Z,65.09
2019-05-07T04:53:23.389Z,65.69
2019-05-07T04:54:23.458Z,65.59
2019-05-07T04:55:22.910Z,65.69
2019-05-07T04:56:23.569Z,65.69
2019-05-07T04:57:20.294Z,65.49
2019-05-07T04:58:23.312Z,65.19
2019-05-07T04:59:20.271Z,65.19
2019-05-07T05:00:22.864Z,65.29
2019-05-07T05:01:23.213Z,65.39
2019-05-07T05:02:22.884Z,65.49
2019-05-07T05:03:23.389Z,65.69
2019-05-07T05:04:28.994Z,65.69
2019-05-07T05:05:23.561Z,65.59
2019-05-07T05:06:20.205Z,65.89
2019-05-07T05:07:22.422Z,65.39
2019-05-07T05:08:22.973Z,65.99
2019-05-07T05:09:20.969Z,65.29
2019-05-07T05:10:22.895Z,66.69
2019-05-07T05:11:20.156Z,65.29
2019-05-07T05:12:22.447Z,64.09
2019-05-07T05:13:20.125Z,64.09
2019-05-07T05:14:22.662Z,62.39
2019-05-07T05:15:22.066Z,61.79
2019-05-07T05:16:22.327Z,60.29
2019-05-07T05:17:22.338Z,60.59
2019-05-07T05:18:21.955Z,59.69
2019-05-07T05:19:20.070Z,60.29
2019-05-07T05:20:22.047Z,60.79
2019-05-07T05:21:20.036Z,59.99
2019-05-07T05:22:22.048Z,60.69
2019-05-07T05:23:20.015Z,59.59
2019-05-07T05:24:22.090Z,60.59
2019-05-07T05:25:19.995Z,59.42
2019-05-07T05:26:21.863Z,59.59
2019-05-07T05:27:19.973Z,59.39
2019-05-07T05:28:21.887Z,59.69
2019-05-07T05:29:19.952Z,59.62
2019-05-07T05:30:21.970Z,59.12
2019-05-07T05:31:22.149Z,60.39
2019-05-07T05:32:19.920Z,59.69
2019-05-07T05:33:19.913Z,59.69
2019-05-07T05:34:22.110Z,59.30
2019-05-07T05:35:22.053Z,60.59
2019-05-07T05:36:22.038Z,60.82
2019-05-07T05:37:19.868Z,60.82
2019-05-07T05:38:21.960Z,60.69
2019-05-07T05:39:22.336Z,60.62
2019-05-07T05:40:19.835Z,60.82
2019-05-07T05:41:19.827Z,60.42
2019-05-07T05:42:19.833Z,60.62
2019-05-07T05:43:19.880Z,60.19
2019-05-07T05:44:19.799Z,60.69
2019-05-07T05:45:21.738Z,60.62
2019-05-07T05:46:19.772Z,60.19
2019-05-07T05:47:22.060Z,59.89
2019-05-07T05:48:19.750Z,59.89
2019-05-07T05:49:19.747Z,60.29
2019-05-07T05:50:21.859Z,60.39
2019-05-07T05:51:19.725Z,59.30
2019-05-07T05:52:21.539Z,59.89
2019-05-07T05:53:21.765Z,59.72
2019-05-07T05:54:19.691Z,60.29
2019-05-07T05:55:19.686Z,59.39
2019-05-07T05:56:19.671Z,59.19
2019-05-07T05:57:19.680Z,59.49
2019-05-07T05:58:19.654Z,59.39
2019-05-07T05:59:25.301Z,59.49
2019-05-07T06:00:22.096Z,59.69
2019-05-07T06:01:19.621Z,59.59
2019-05-07T06:02:19.607Z,59.39
2019-05-07T06:03:19.593Z,59.59
2019-05-07T06:04:21.977Z,59.30
2019-05-07T06:05:19.571Z,59.39
2019-05-07T06:06:21.817Z,58.99
2019-05-07T06:07:19.550Z,58.99
2019-05-07T06:08:19.548Z,59.39
2019-05-07T06:09:21.767Z,59.09
2019-05-07T06:10:19.518Z,58.86
2019-05-07T06:11:21.736Z,58.89
2019-05-07T06:12:19.495Z,59.06
2019-05-07T06:13:19.485Z,58.67
2019-05-07T06:14:19.483Z,58.86
2019-05-07T06:15:19.461Z,58.86
2019-05-07T06:16:19.455Z,58.76
2019-05-07T06:17:19.438Z,58.86
2019-05-07T06:18:21.880Z,58.47
2019-05-07T06:19:19.418Z,58.86
2019-05-07T06:20:19.420Z,58.47
2019-05-07T06:21:19.407Z,58.56
2019-05-07T06:22:19.391Z,58.26
2019-05-07T06:23:19.377Z,58.67
2019-05-07T06:24:19.368Z,57.67
2019-05-07T06:25:19.364Z,57.87
2019-05-07T06:26:19.348Z,58.04
2019-05-07T06:27:19.343Z,58.04
2019-05-07T06:28:19.327Z,58.24
2019-05-07T06:29:20.294Z,57.84
2019-05-07T06:30:19.301Z,58.14
2019-05-07T06:31:19.295Z,57.84
2019-05-07T06:32:19.281Z,57.93
2019-05-07T06:33:19.274Z,57.64
2019-05-07T06:34:19.264Z,56.74
2019-05-07T06:35:19.506Z,56.94
2019-05-07T06:36:19.257Z,57.04
2019-05-07T06:37:19.231Z,57.34
2019-05-07T06:38:19.225Z,57.26
2019-05-07T06:39:19.214Z,56.94
2019-05-07T06:40:21.435Z,57.17
2019-05-07T06:41:19.188Z,57.14
2019-05-07T06:42:19.354Z,56.84
2019-05-07T06:43:19.164Z,56.74
2019-05-07T06:44:19.172Z,57.04
2019-05-07T06:45:19.142Z,57.04
2019-05-07T06:46:19.129Z,57.14
2019-05-07T06:47:19.115Z,56.94
2019-05-07T06:48:33.584Z,56.94
2019-05-07T06:49:22.130Z,57.04
2019-05-07T06:50:19.090Z,56.64
2019-05-07T06:51:19.080Z,56.84
2019-05-07T06:52:19.066Z,56.96
2019-05-07T06:53:19.057Z,57.04
2019-05-07T06:54:19.058Z,57.07
2019-05-07T06:55:19.038Z,56.64
2019-05-07T06:56:19.044Z,57.04
2019-05-07T06:57:19.015Z,57.04
2019-05-07T06:58:18.998Z,56.94
2019-05-07T06:59:19.569Z,56.57
2019-05-07T07:00:18.978Z,56.54
2019-05-07T07:01:18.966Z,56.34
2019-05-07T07:02:18.958Z,56.44
2019-05-07T07:03:18.950Z,56.64
2019-05-07T07:04:18.933Z,56.54
2019-05-07T07:05:18.929Z,56.44
2019-05-07T07:06:18.915Z,56.54
2019-05-07T07:07:27.486Z,56.54
2019-05-07T07:08:19.888Z,56.64
2019-05-07T07:09:18.881Z,56.44
2019-05-07T07:10:18.867Z,56.21
2019-05-07T07:11:18.864Z,56.14
2019-05-07T07:12:18.846Z,56.24
2019-05-07T07:13:18.846Z,56.44
2019-05-07T07:14:18.823Z,56.44
2019-05-07T07:15:18.812Z,56.34
2019-05-07T07:16:18.806Z,55.91
2019-05-07T07:17:18.802Z,55.81
2019-05-07T07:18:18.785Z,56.14
2019-05-07T07:19:18.784Z,55.84
2019-05-07T07:20:18.771Z,55.54
2019-05-07T07:21:18.745Z,56.01
2019-05-07T07:22:18.739Z,56.11
2019-05-07T07:23:18.732Z,55.51
2019-05-07T07:24:18.720Z,55.44
2019-05-07T07:25:18.705Z,55.54
2019-05-07T07:26:18.723Z,55.54
2019-05-07T07:27:18.773Z,55.24
2019-05-07T07:28:18.686Z,55.64
2019-05-07T07:29:18.680Z,55.14
2019-05-07T07:30:18.649Z,55.34
2019-05-07T07:31:18.639Z,55.44
2019-05-07T07:32:18.704Z,55.74
2019-05-07T07:33:18.615Z,55.34
2019-05-07T07:34:18.628Z,55.54
2019-05-07T07:35:18.713Z,55.24
2019-05-07T07:36:18.589Z,55.32
2019-05-07T07:37:18.571Z,55.51
2019-05-07T07:38:18.572Z,55.32
2019-05-07T07:39:18.557Z,55.51
2019-05-07T07:40:18.550Z,54.82
2019-05-07T07:41:18.535Z,55.02
2019-05-07T07:42:18.518Z,54.82
2019-05-07T07:43:18.512Z,55.51
2019-05-07T07:44:18.497Z,54.91
2019-05-07T07:45:18.488Z,55.11
2019-05-07T07:46:18.490Z,54.94
2019-05-07T07:47:18.461Z,55.11
2019-05-07T07:48:18.453Z,55.21
2019-05-07T07:49:18.443Z,54.61
2019-05-07T07:50:18.436Z,54.82
2019-05-07T07:51:18.424Z,54.61
2019-05-07T07:52:18.409Z,55.32
2019-05-07T07:53:18.404Z,55.11
2019-05-07T07:54:18.394Z,54.41
2019-05-07T07:55:18.376Z,54.41
2019-05-07T07:56:18.372Z,53.92
2019-05-07T07:57:18.360Z,53.52
2019-05-07T07:58:19.065Z,53.61
2019-05-07T07:59:18.333Z,53.81
2019-05-07T08:00:18.324Z,53.81
2019-05-07T08:01:18.316Z,54.32
2019-05-07T08:02:18.301Z,54.32
2019-05-07T08:03:18.299Z,54.41
2019-05-07T08:04:18.278Z,53.92
2019-05-07T08:05:18.273Z,53.81
2019-05-07T08:06:18.257Z,53.92
2019-05-07T08:07:18.252Z,53.72
2019-05-07T08:08:18.233Z,54.11
2019-05-07T08:09:18.236Z,54.22
2019-05-07T08:10:18.216Z,53.92
2019-05-07T08:11:18.202Z,54.02
2019-05-07T08:12:18.191Z,54.32
2019-05-07T08:13:18.187Z,54.32
2019-05-07T08:14:18.171Z,53.92
2019-05-07T08:15:21.236Z,54.11
2019-05-07T08:16:19.143Z,54.22
2019-05-07T08:17:18.136Z,53.81
2019-05-07T08:18:18.171Z,54.02
2019-05-07T08:19:21.979Z,54.22
2019-05-07T08:20:19.111Z,54.02
2019-05-07T08:21:18.101Z,54.22
2019-05-07T08:22:18.090Z,54.11
2019-05-07T08:23:18.069Z,54.11
2019-05-07T08:24:18.064Z,54.32
2019-05-07T08:25:18.052Z,54.32
2019-05-07T08:26:18.051Z,54.22
2019-05-07T08:27:18.036Z,54.11
2019-05-07T08:28:18.015Z,54.22
2019-05-07T08:29:18.007Z,54.02
2019-05-07T08:30:18.011Z,53.89
2019-05-07T08:31:17.985Z,53.79
2019-05-07T08:32:17.971Z,54.59
2019-05-07T08:33:17.963Z,54.69
2019-05-07T08:34:17.954Z,53.39
2019-05-07T08:35:17.944Z,53.79
2019-05-07T08:36:17.928Z,53.79
2019-05-07T08:37:17.929Z,50.60
2019-05-07T08:38:17.910Z,50.99
2019-05-07T08:39:17.898Z,52.09
2019-05-07T08:40:17.886Z,51.89
2019-05-07T08:41:18.005Z,50.30
2019-05-07T08:42:17.870Z,42.51
2019-05-07T08:43:17.858Z,36.82
2019-05-07T08:44:17.859Z,36.24
2019-05-07T08:45:17.919Z,36.64
2019-05-07T08:46:17.823Z,38.24
2019-05-07T08:47:17.855Z,34.84
2019-05-07T08:48:17.814Z,35.64
2019-05-07T08:49:17.935Z,33.56
2019-05-07T08:50:17.781Z,35.94
2019-05-07T08:51:17.781Z,41.85
2019-05-07T08:52:17.760Z,42.76
2019-05-07T08:53:17.764Z,42.25
2019-05-07T08:54:17.743Z,43.45
2019-05-07T08:55:17.739Z,43.05
2019-05-07T08:56:17.718Z,43.55
2019-05-07T08:57:18.531Z,43.75
2019-05-07T08:58:17.719Z,44.95
2019-05-07T08:59:17.682Z,43.75
2019-05-07T09:00:17.672Z,44.05
2019-05-07T09:01:17.661Z,42.76
2019-05-07T09:02:29.833Z,43.53
2019-05-07T09:03:22.124Z,43.35
2019-05-07T09:04:18.654Z,43.45
2019-05-07T09:05:17.620Z,42.63
2019-05-07T09:06:17.648Z,41.93
2019-05-07T09:07:17.602Z,42.63
2019-05-07T09:08:17.586Z,42.83
2019-05-07T09:09:17.576Z,44.93
2019-05-07T09:10:17.588Z,43.93
2019-05-07T09:11:17.561Z,36.94
2019-05-07T09:12:17.568Z,37.14
2019-05-07T09:13:17.533Z,28.85
2019-05-07T09:14:17.521Z,28.25
2019-05-07T09:15:17.521Z,27.95
2019-05-07T09:16:17.501Z,29.25
2019-05-07T09:17:17.504Z,28.17
2019-05-07T09:18:17.479Z,28.97
2019-05-07T09:19:17.473Z,27.78
2019-05-07T09:20:17.459Z,28.97
2019-05-07T09:21:17.454Z,28.98
2019-05-07T09:22:17.437Z,29.28
2019-05-07T09:23:17.435Z,28.98
2019-05-07T09:24:17.418Z,28.68
2019-05-07T09:25:17.406Z,28.98
2019-05-07T09:26:17.399Z,28.28
2019-05-07T09:27:17.385Z,28.08
2019-05-07T09:28:17.374Z,28.18
2019-05-07T09:29:17.373Z,28.08
2019-05-07T09:30:18.865Z,27.28
2019-05-07T09:31:17.347Z,26.79
2019-05-07T09:32:17.336Z,27.88
2019-05-07T09:33:17.334Z,26.79
2019-05-07T09:34:17.314Z,27.39
2019-05-07T09:35:17.309Z,27.29
2019-05-07T09:36:17.291Z,26.70
2019-05-07T09:37:17.292Z,26.40
2019-05-07T09:38:17.265Z,27.70
2019-05-07T09:39:17.255Z,27.81
2019-05-07T09:40:17.275Z,27.89
2019-05-07T09:41:17.235Z,27.50
2019-05-07T09:42:17.233Z,26.59
2019-05-07T09:43:17.211Z,27.50
2019-05-07T09:44:17.202Z,27.91
2019-05-07T09:45:17.187Z,27.71
2019-05-07T09:46:17.180Z,28.09
2019-05-07T09:47:17.171Z,27.89
2019-05-07T09:48:17.155Z,28.09
2019-05-07T09:49:17.148Z,27.39
2019-05-07T09:50:17.145Z,28.50
2019-05-07T09:51:17.132Z,28.00
2019-05-07T09:52:17.120Z,29.19
2019-05-07T09:53:17.101Z,28.69
2019-05-07T09:54:17.093Z,29.10
2019-05-07T09:55:17.671Z,29.60
2019-05-07T09:56:17.066Z,28.59
2019-05-07T09:57:28.253Z,30.10
2019-05-07T09:58:33.179Z,29.99
2019-05-07T09:59:18.036Z,30.58
2019-05-07T10:00:17.030Z,31.48
2019-05-07T10:01:17.014Z,30.18
2019-05-07T10:02:17.007Z,29.88
2019-05-07T10:03:17.000Z,30.18
2019-05-07T10:04:16.984Z,29.98
2019-05-07T10:05:16.977Z,30.38
2019-05-07T10:06:16.960Z,30.88
2019-05-07T10:07:16.965Z,30.18
2019-05-07T10:08:16.941Z,30.68
2019-05-07T10:09:16.934Z,30.58
2019-05-07T10:10:16.915Z,30.78
2019-05-07T10:11:16.910Z,30.68
2019-05-07T10:12:16.893Z,30.98
2019-05-07T10:13:16.885Z,30.87
2019-05-07T10:14:16.879Z,31.46
2019-05-07T10:15:17.890Z,30.78
2019-05-07T10:16:16.855Z,30.87
2019-05-07T10:17:16.842Z,31.76
2019-05-07T10:18:16.844Z,31.58
2019-05-07T10:19:16.818Z,31.16
2019-05-07T10:20:22.121Z,31.67
2019-05-07T10:21:17.796Z,31.38
2019-05-07T10:22:16.785Z,32.68
2019-05-07T10:23:16.840Z,32.86
2019-05-07T10:24:16.779Z,32.86
2019-05-07T10:25:16.831Z,32.86
2019-05-07T10:26:16.839Z,32.76
2019-05-07T10:27:16.733Z,33.16
2019-05-07T10:28:16.726Z,32.86
2019-05-07T10:29:16.716Z,32.76
2019-05-07T10:30:16.700Z,32.97
2019-05-07T10:31:16.701Z,32.36
2019-05-07T10:32:16.676Z,32.06
2019-05-07T10:33:16.720Z,32.56
2019-05-07T10:34:16.660Z,32.17
2019-05-07T10:35:16.656Z,32.46
2019-05-07T10:36:16.636Z,33.06
2019-05-07T10:37:16.629Z,32.86
2019-05-07T10:38:16.611Z,33.16
2019-05-07T10:39:16.603Z,33.26
2019-05-07T10:40:16.592Z,33.26
2019-05-07T10:41:16.628Z,33.06
2019-05-07T10:42:16.571Z,33.76
2019-05-07T10:43:16.571Z,34.26
2019-05-07T10:44:16.548Z,33.86
2019-05-07T10:45:16.538Z,34.06
2019-05-07T10:46:16.524Z,34.06
2019-05-07T10:47:16.514Z,34.66
2019-05-07T10:48:16.502Z,35.46
2019-05-07T10:49:16.518Z,35.58
2019-05-07T10:50:16.486Z,35.16
2019-05-07T10:51:16.475Z,35.48
2019-05-07T10:52:16.462Z,35.88
2019-05-07T10:53:16.449Z,35.68
2019-05-07T10:54:16.477Z,35.86
2019-05-07T10:55:16.434Z,36.38
2019-05-07T10:56:16.416Z,36.58
2019-05-07T10:57:16.404Z,36.16
2019-05-07T10:58:16.413Z,36.46
2019-05-07T10:59:16.391Z,36.47
2019-05-07T11:00:16.368Z,36.36
2019-05-07T11:01:16.364Z,36.16
2019-05-07T11:02:16.354Z,36.26
2019-05-07T11:03:16.338Z,36.98
2019-05-07T11:04:16.332Z,36.98
2019-05-07T11:05:16.326Z,36.96
2019-05-07T11:06:16.306Z,36.88
2019-05-07T11:07:16.294Z,36.76
2019-05-07T11:08:16.283Z,36.46
2019-05-07T11:09:16.281Z,36.68
2019-05-07T11:10:16.272Z,36.76
2019-05-07T11:11:16.264Z,36.98
2019-05-07T11:12:16.240Z,37.26
2019-05-07T11:13:16.228Z,37.36
2019-05-07T11:14:16.216Z,37.26
2019-05-07T11:15:16.206Z,37.16
2019-05-07T11:16:16.222Z,37.77
2019-05-07T11:17:16.184Z,37.96
2019-05-07T11:18:16.174Z,37.88
2019-05-07T11:19:18.769Z,37.76
2019-05-07T11:20:16.153Z,37.46
2019-05-07T11:21:16.652Z,37.86
2019-05-07T11:22:16.144Z,37.86
2019-05-07T11:23:16.120Z,37.96
2019-05-07T11:24:16.111Z,37.36
2019-05-07T11:25:16.097Z,37.58
2019-05-07T11:26:16.097Z,38.28
2019-05-07T11:27:16.108Z,38.28
2019-05-07T11:28:16.086Z,38.07
2019-05-07T11:29:16.054Z,38.07
2019-05-07T11:30:16.044Z,38.18
2019-05-07T11:31:16.035Z,38.36
2019-05-07T11:32:16.023Z,38.18
2019-05-07T11:33:16.020Z,38.57
2019-05-07T11:34:16.009Z,38.18
2019-05-07T11:35:15.995Z,39.07
2019-05-07T11:36:15.983Z,38.56
2019-05-07T11:37:15.971Z,38.28
2019-05-07T11:38:22.317Z,38.28
2019-05-07T11:39:16.968Z,38.78
2019-05-07T11:40:16.013Z,38.18
2019-05-07T11:41:15.927Z,38.28
2019-05-07T11:42:15.914Z,38.07
2019-05-07T11:43:15.925Z,38.07
2019-05-07T11:44:15.898Z,38.07
2019-05-07T11:45:15.906Z,38.28
2019-05-07T11:46:15.908Z,38.28
2019-05-07T11:47:15.868Z,38.48
2019-05-07T11:48:15.864Z,38.48
2019-05-07T11:49:16.025Z,38.38
2019-05-07T11:50:15.836Z,38.98
2019-05-07T11:51:16.220Z,38.38
2019-05-07T11:52:15.811Z,38.57
2019-05-07T11:53:15.802Z,38.28
2019-05-07T11:54:15.787Z,38.78
2019-05-07T11:55:15.780Z,38.38
2019-05-07T11:56:15.778Z,38.38
2019-05-07T11:57:15.755Z,38.48
2019-05-07T11:58:15.747Z,38.57
2019-05-07T11:59:15.733Z,38.18
2019-05-07T12:00:15.729Z,38.68
2019-05-07T12:01:15.734Z,38.48
2019-05-07T12:02:15.722Z,38.07
2019-05-07T12:03:15.693Z,38.87
2019-05-07T12:04:15.679Z,38.78
2019-05-07T12:05:15.664Z,38.78
2019-05-07T12:06:15.685Z,38.57
2019-05-07T12:07:17.590Z,38.79
2019-05-07T12:08:15.653Z,38.18
2019-05-07T12:09:15.629Z,38.70
2019-05-07T12:10:15.615Z,33.00
2019-05-07T12:11:17.580Z,31.40
2019-05-07T12:12:15.605Z,28.50
2019-05-07T12:13:15.592Z,30.41
2019-05-07T12:14:28.026Z,33.21
2019-05-07T12:15:16.579Z,33.73
2019-05-07T12:16:15.551Z,34.41
2019-05-07T12:17:15.544Z,35.63
2019-05-07T12:18:15.537Z,36.03
2019-05-07T12:19:16.556Z,36.83
2019-05-07T12:20:15.510Z,36.73
2019-05-07T12:21:20.190Z,36.21
2019-05-07T12:22:16.487Z,37.13
2019-05-07T12:23:15.479Z,37.21
2019-05-07T12:24:16.483Z,36.81
2019-05-07T12:25:15.471Z,37.51
2019-05-07T12:26:15.452Z,37.13
2019-05-07T12:27:15.505Z,36.71
2019-05-07T12:28:15.428Z,37.01
2019-05-07T12:29:15.417Z,37.21
2019-05-07T12:30:15.405Z,36.91
2019-05-07T12:31:15.399Z,37.21
2019-05-07T12:32:15.387Z,36.71
2019-05-07T12:33:15.402Z,37.01
2019-05-07T12:34:15.371Z,37.21
2019-05-07T12:35:15.348Z,39.51
2019-05-07T12:36:15.347Z,39.41
2019-05-07T12:37:15.331Z,40.11
2019-05-07T12:38:15.326Z,40.00
2019-05-07T12:39:15.309Z,40.69
2019-05-07T12:40:15.300Z,40.41
2019-05-07T12:41:15.292Z,40.50
2019-05-07T12:42:15.277Z,40.69
2019-05-07T12:43:15.265Z,41.60
2019-05-07T12:44:15.265Z,41.80
2019-05-07T12:45:15.249Z,41.89
2019-05-07T12:46:15.258Z,42.29
2019-05-07T12:47:15.220Z,41.80
2019-05-07T12:48:15.220Z,41.69
2019-05-07T12:49:15.211Z,41.60
2019-05-07T12:50:15.193Z,42.29
2019-05-07T12:51:15.180Z,41.89
2019-05-07T12:52:15.167Z,42.27